Flight Track Log - Related Links

Times and Time Zones

All times are in EDT time to prevent confusion due to time zone crossing. See the LIA509 flight status page for this flight to view local times or setup timezone preferences in your user account.

Time Position Orientation Groundspeed Altitude Reporting Facility
EDT Latitude Longitude Course Direction KTS MPH feet Rate Location/Type
Tue 09:04:00 PM 18.6058 -64.2080 55° Northeast  Level FlightAware Approximate
Tue 09:05:00 PM 18.6333 -64.1548 90° East  Level FlightAware Approximate
Tue 09:06:00 PM 18.6647 -64.1029 55° Northeast  Level FlightAware Approximate
Tue 09:07:00 PM 18.6354 -64.0513 124° Southeast  Level FlightAware Approximate
Tue 09:08:00 PM 18.6022 -63.9997 124° Southeast  Level FlightAware Approximate
Tue 09:09:00 PM 18.5690 -63.9481 124° Southeast  Level FlightAware Approximate
Tue 09:10:00 PM 18.5358 -63.8965 124° Southeast  Level FlightAware Approximate
Tue 09:11:00 PM 18.5023 -63.8451 125° Southeast  Level FlightAware Approximate
Tue 09:12:00 PM 18.4649 -63.7972 123° Southeast  Level FlightAware Approximate
Tue 09:13:00 PM 18.4324 -63.7452 123° Southeast  Level FlightAware Approximate
Tue 09:14:00 PM 18.3999 -63.6931 123° Southeast  Level FlightAware Approximate
Tue 09:15:00 PM 18.3753 -63.6389 127° Southeast  Level FlightAware Approximate
Tue 09:16:00 PM 18.3393 -63.5895 127° Southeast  Level FlightAware Approximate
Tue 09:17:00 PM 18.3034 -63.5400 127° Southeast  Level FlightAware Approximate
Tue 09:18:00 PM 18.2674 -63.4906 127° Southeast  Level FlightAware Approximate
Tue 09:19:00 PM 18.2346 -63.4390 120° Southeast  Level FlightAware Approximate
Tue 09:20:00 PM 18.2048 -63.3852 120° Southeast  Level FlightAware Approximate
Tue 09:21:00 PM 18.1749 -63.3315 120° Southeast  Level FlightAware Approximate
Tue 09:22:00 PM 18.1402 -63.2813 128° Southeast  Level FlightAware Approximate
Tue 09:23:00 PM 18.1054 -63.2311 122° Southeast  Level FlightAware Approximate
Tue 09:24:00 PM 18.0738 -63.1786 122° Southeast  Level FlightAware Approximate
Tue 09:25:00 PM 18.0428 -63.1261 136° Southeast  Level FlightAware Approximate
Tue 09:26:00 PM 18.0410 -63.1089 90° East  Level Estimated
Tue 09:27:00 PM 18.0410 -63.1089 90° East  Level Estimated
Tue 09:28:00 PM 18.0410 -63.1089 90° East  Level Estimated
Tue 09:29:00 PM 18.0410 -63.1089 90° East  Level Estimated
Tue 09:30:00 PM 18.0410 -63.1089 90° East  Level Estimated
Tue 09:31:00 PM 18.0410 -63.1089 90° East  Level Estimated
Tue 09:32:00 PM 18.0410 -63.1089 90° East  Level Estimated

Login

Don't have an account? Register now (free) for customized features, flight alerts, and more!